Aplicació Alertes

Dades de l'estació automàtica Gurb

?
?
Resum diari 23:00 TU
Dades diàries de l'estació meteorològica
Temperatura mitjana 6.2 °C
Temperatura màxima 11.7 °C 15:51 TU
Temperatura mínima 3.2 °C 6:13 TU
Humitat relativa mitjana 93%
Precipitació acumulada 0.0 mm
Ratxa màxima del vent (2 m) 15.1 km/h - 24º 15:28 TU
Irradiació solar global 3.1 MJ/m2

El tram horari està expressat en Temps Universal (TU). Cal sumar una hora en horari d'hivern i dues en horari d'estiu per passar a l'hora oficial.

Gurb

Metadades estació meteorol´gica
Municipi Gurb
Comarca Osona
Altitud 509 m
Data alta 31.03.1999
Estat actual Operativa
Dades de període
Període
TU
TM
°C
TX
°C
TN
°C
HRM
%
PPT
mm
VVM (2 m)
km/h
DVM (2 m)
graus
VVX (2 m)
km/h
RS
W/m2
00:00 - 00:30 5.5 5.9 5.0 93 0.0 2.9 322 5.8 0
00:30 - 01:00 5.3 5.6 4.7 93 0.0 3.2 325 9.0 0
01:00 - 01:30 4.8 5.1 4.6 96 0.0 1.1 288 4.7 0
01:30 - 02:00 4.9 5.3 4.4 95 0.0 1.8 327 5.0 0
02:00 - 02:30 5.1 5.5 4.8 94 0.0 4.0 335 7.6 0
02:30 - 03:00 4.4 5.0 4.2 96 0.0 2.5 200 6.5 0
03:00 - 03:30 4.2 4.5 3.9 97 0.0 2.9 302 9.0 0
03:30 - 04:00 4.3 4.7 4.1 97 0.0 2.5 321 8.3 0
04:00 - 04:30 3.8 4.1 3.7 97 0.0 1.8 263 7.2 0
04:30 - 05:00 4.3 5.0 3.8 97 0.0 1.1 318 5.8 0
05:00 - 05:30 3.5 3.9 3.3 97 0.0 2.2 342 6.5 0
05:30 - 06:00 3.4 3.6 3.3 98 0.0 0.7 249 3.6 0
06:00 - 06:30 3.3 3.6 3.2 98 0.0 0.4 304 1.8 0
06:30 - 07:00 3.8 4.3 3.3 98 0.0 2.2 315 6.5 0
07:00 - 07:30 4.1 4.6 3.3 97 0.0 1.8 346 4.7 9
07:30 - 08:00 3.6 3.9 3.4 98 0.0 0.4 295 2.9 19
08:00 - 08:30 3.5 3.6 3.4 98 0.0 1.1 193 3.6 21
08:30 - 09:00 3.6 4.0 3.5 98 0.0 0.7 258 3.6 33
09:00 - 09:30 4.3 4.9 4.1 97 0.0 2.9 246 10.8 52
09:30 - 10:00 4.9 5.7 4.2 96 0.0 2.5 234 7.9 85
10:00 - 10:30 5.7 6.1 5.4 95 0.0 1.8 126 5.0 106
10:30 - 11:00 5.6 5.7 5.4 94 0.0 2.5 68 5.8 107
11:00 - 11:30 5.8 6.1 5.5 93 0.0 1.8 207 6.1 110
11:30 - 12:00 6.6 7.2 6.1 92 0.0 1.4 286 5.0 125
12:00 - 12:30 7.2 7.3 7.1 92 0.0 3.2 49 7.2 125
12:30 - 13:00 7.3 7.4 7.2 93 0.0 3.6 63 11.9 103
13:00 - 13:30 7.5 7.7 7.4 93 0.0 2.2 169 9.7 80
13:30 - 14:00 7.6 7.7 7.5 91 0.0 2.5 194 8.3 75
14:00 - 14:30 8.0 8.8 7.7 89 0.0 2.2 148 5.0 110
14:30 - 15:00 9.2 9.9 8.9 85 0.0 2.2 6 7.9 190
15:00 - 15:30 10.2 10.5 10.0 83 0.0 2.5 345 15.1 143
15:30 - 16:00 10.5 11.7 9.9 84 0.0 4.3 332 13.0 148
16:00 - 16:30 9.6 10.0 9.1 86 0.0 3.6 136 9.4 89
16:30 - 17:00 9.1 9.4 8.9 88 0.0 4.0 161 10.1 13
17:00 - 17:30 8.6 9.0 8.2 88 0.0 6.5 3 13.7 1
17:30 - 18:00 9.0 9.7 8.5 86 0.0 6.8 357 13.0 0
18:00 - 18:30 8.6 9.2 7.8 87 0.0 3.2 326 9.7 0
18:30 - 19:00 9.4 10.4 8.5 84 0.0 2.5 304 8.3 0
19:00 - 19:30 9.1 10.6 7.7 84 0.0 3.6 274 9.0 0
19:30 - 20:00 7.7 8.1 7.0 90 0.0 3.6 294 11.2 0
20:00 - 20:30 8.5 9.3 6.6 89 0.0 2.9 304 6.5 0
20:30 - 21:00 6.1 6.9 5.7 95 0.0 2.5 309 7.9 0
21:00 - 21:30 6.2 6.9 5.8 95 0.0 2.5 299 7.6 0
21:30 - 22:00 7.0 8.0 5.6 94 0.0 2.5 298 11.2 0
22:00 - 22:30 5.7 6.2 5.3 97 0.0 2.9 299 9.7 0
22:30 - 23:00 5.7 6.3 5.1 96 0.0 4.3 334 12.2 0
23:00 - 23:30 5.1 6.1 4.5 97 0.0 4.3 338 10.1 0

Les dades en taronja només han passat un control de qualitat automàtic. Resta pendent la seva validació definitiva.